Time;durP1;ratioP1;P1;durP2;ratioP2;P2;SDS_P1;SDS_P2;PMS_P1;PMS_P2;Temp;Humidity;BMP_temperature;BMP_pressure;BME280_temperature;BME280_humidity;BME280_pressure;Samples;Min_cycle;Max_cycle;Signal;HPM_P1;HPM_P2
2021/04/08 00:01:24;;;;;;;6.85;2.55;;;2.40;53.30;;;;;;5013246;28;20048;-76
2021/04/08 00:03:50;;;;;;;7.05;2.80;;;2.50;53.40;;;;;;5013344;28;20079;-76
2021/04/08 00:06:16;;;;;;;9.88;3.28;;;2.40;54.50;;;;;;5013204;28;20044;-76
2021/04/08 00:08:41;;;;;;;10.15;2.90;;;2.30;55.20;;;;;;5013148;28;20032;-75
2021/04/08 00:11:07;;;;;;;7.88;3.08;;;2.30;55.40;;;;;;4995498;28;20079;-75
2021/04/08 00:13:33;;;;;;;4.82;2.65;;;2.30;55.60;;;;;;5012945;28;20068;-76
2021/04/08 00:15:59;;;;;;;5.35;2.80;;;2.30;55.60;;;;;;5013203;28;20026;-75
2021/04/08 00:18:25;;;;;;;5.75;2.63;;;2.30;55.50;;;;;;5013250;28;20364;-74
2021/04/08 00:20:50;;;;;;;5.40;2.28;;;2.20;55.30;;;;;;5013099;28;20033;-75
2021/04/08 00:23:16;;;;;;;8.68;2.30;;;2.20;55.30;;;;;;5013053;28;20033;-75
2021/04/08 00:25:41;;;;;;;7.03;2.05;;;2.30;55.10;;;;;;5012854;28;20022;-75
2021/04/08 00:28:08;;;;;;;9.68;2.80;;;2.20;55.20;;;;;;4995195;28;20033;-75
2021/04/08 00:30:43;;;;;;;8.15;2.53;;;2.20;55.20;;;;;;5013042;28;20018;-75
2021/04/08 00:33:12;;;;;;;5.05;2.28;;;2.20;55.50;;;;;;5012896;28;20109;-75
2021/04/08 00:35:38;;;;;;;4.97;2.33;;;2.20;55.60;;;;;;5012854;28;20030;-75
2021/04/08 00:38:04;;;;;;;9.45;2.92;;;2.30;55.60;;;;;;5012842;28;20033;-75
2021/04/08 00:40:30;;;;;;;6.40;2.50;;;2.30;55.40;;;;;;5012823;28;20030;-75
2021/04/08 00:42:56;;;;;;;8.40;2.85;;;2.30;55.60;;;;;;5012876;28;20026;-75
2021/04/08 00:45:21;;;;;;;8.20;2.97;;;2.30;56.50;;;;;;5012677;28;20061;-76
2021/04/08 00:47:47;;;;;;;10.77;3.42;;;2.20;55.90;;;;;;5012727;28;20049;-75
2021/04/08 00:50:14;;;;;;;7.25;3.38;;;2.20;56.20;;;;;;5012256;28;20104;-75
2021/04/08 00:52:42;;;;;;;7.47;2.80;;;2.20;56.40;;;;;;4995120;28;20021;-75
2021/04/08 00:55:10;;;;;;;6.88;2.78;;;2.10;56.70;;;;;;4994981;28;20022;-75
2021/04/08 00:57:36;;;;;;;5.70;2.90;;;2.10;57.20;;;;;;4994837;28;20084;-75
2021/04/08 01:00:05;;;;;;;8.75;4.03;;;2.10;57.90;;;;;;4994943;28;20026;-74
2021/04/08 01:02:31;;;;;;;6.43;3.13;;;2.00;58.30;;;;;;4998303;28;20452;-75
2021/04/08 01:04:58;;;;;;;7.15;3.13;;;2.10;58.80;;;;;;4998708;28;20391;-75
2021/04/08 01:07:24;;;;;;;7.68;3.33;;;2.10;59.10;;;;;;5016354;28;20075;-75
2021/04/08 01:09:50;;;;;;;6.35;3.03;;;2.10;59.40;;;;;;4998990;28;20018;-75
2021/04/08 01:12:15;;;;;;;8.48;3.25;;;2.10;59.50;;;;;;5005410;28;20110;-75
2021/04/08 01:14:41;;;;;;;10.32;3.50;;;2.00;59.80;;;;;;5006659;28;20026;-76
2021/04/08 01:17:16;;;;;;;11.38;2.80;;;2.00;60.00;;;;;;4999116;28;20025;-76
2021/04/08 01:20:04;;;;;;;6.53;3.17;;;2.00;60.90;;;;;;4998760;28;20018;-76
2021/04/08 01:23:01;;;;;;;12.27;3.13;;;2.00;61.00;;;;;;4998595;28;20196;-75
2021/04/08 01:25:45;;;;;;;6.82;3.33;;;2.00;63.80;;;;;;4998352;28;20455;-75
2021/04/08 01:28:17;;;;;;;6.40;3.25;;;2.00;64.80;;;;;;5016152;28;20029;-76
2021/04/08 01:30:51;;;;;;;7.97;3.22;;;2.00;64.90;;;;;;5016015;28;20136;-75
2021/04/08 01:33:18;;;;;;;5.07;3.00;;;2.00;65.30;;;;;;5015946;28;20084;-75
2021/04/08 01:35:45;;;;;;;6.97;3.53;;;2.00;65.10;;;;;;5016054;28;20026;-74
2021/04/08 01:38:17;;;;;;;9.27;2.85;;;2.00;65.00;;;;;;4998100;28;20029;-75
2021/04/08 01:40:45;;;;;;;10.90;3.70;;;2.00;66.40;;;;;;5022714;28;20098;-74
2021/04/08 01:43:12;;;;;;;9.48;3.90;;;1.90;66.80;;;;;;5034804;28;20010;-74
2021/04/08 01:45:38;;;;;;;8.60;3.92;;;1.90;68.00;;;;;;5038623;28;20041;-75
2021/04/08 01:48:05;;;;;;;14.32;5.22;;;1.90;68.40;;;;;;5021112;28;20121;-75
2021/04/08 01:50:32;;;;;;;8.98;4.63;;;1.80;68.80;;;;;;5017916;28;20025;-76
2021/04/08 01:52:59;;;;;;;16.58;4.10;;;1.80;68.90;;;;;;5017369;28;20022;-76
2021/04/08 01:55:27;;;;;;;9.00;4.03;;;1.80;69.00;;;;;;5016742;28;20167;-76
2021/04/08 01:57:54;;;;;;;7.30;4.00;;;1.80;69.10;;;;;;5015749;28;20391;-76
2021/04/08 02:00:21;;;;;;;7.40;4.10;;;1.80;69.20;;;;;;5015391;28;20058;-76
2021/04/08 02:02:50;;;;;;;8.65;3.85;;;1.80;69.10;;;;;;4997886;28;20066;-76
2021/04/08 02:05:17;;;;;;;9.18;3.80;;;1.80;69.20;;;;;;5015437;28;20033;-76
2021/04/08 02:07:46;;;;;;;16.23;4.30;;;1.80;69.10;;;;;;5015190;28;20037;-76
2021/04/08 02:10:14;;;;;;;10.43;4.53;;;1.80;69.00;;;;;;5015299;28;20018;-76
2021/04/08 02:12:44;;;;;;;8.38;3.63;;;1.80;69.10;;;;;;4997223;28;20142;-76
2021/04/08 02:15:10;;;;;;;9.43;4.18;;;1.80;69.00;;;;;;5015261;28;20175;-76
2021/04/08 02:17:37;;;;;;;12.10;4.55;;;1.80;68.90;;;;;;5015111;28;20076;-76
2021/04/08 02:20:12;;;;;;;10.45;4.72;;;1.70;69.10;;;;;;5015167;28;20026;-76
2021/04/08 02:22:44;;;;;;;9.80;3.53;;;1.80;69.30;;;;;;5015279;28;20069;-76
2021/04/08 02:25:11;;;;;;;6.55;3.80;;;1.80;69.20;;;;;;4997489;28;20120;-76
2021/04/08 02:27:39;;;;;;;8.07;4.10;;;1.80;69.00;;;;;;5015025;28;20046;-77
2021/04/08 02:30:10;;;;;;;8.85;4.70;;;1.80;68.70;;;;;;5014928;28;20022;-75
2021/04/08 02:32:37;;;;;;;10.32;4.30;;;1.90;68.70;;;;;;5014953;28;20080;-76
2021/04/08 02:35:06;;;;;;;12.48;4.30;;;1.90;68.70;;;;;;5014924;28;20057;-75
2021/04/08 02:37:32;;;;;;;9.77;4.53;;;2.00;68.90;;;;;;5014842;28;20444;-76
2021/04/08 02:39:57;;;;;;;12.85;3.97;;;1.90;69.20;;;;;;4997170;28;20030;-76
2021/04/08 02:42:23;;;;;;;8.75;4.60;;;1.90;70.00;;;;;;5014703;28;20034;-76
2021/04/08 02:44:48;;;;;;;12.32;4.40;;;1.80;70.70;;;;;;4997080;28;20084;-76
2021/04/08 02:47:14;;;;;;;7.53;3.72;;;1.80;71.40;;;;;;5014487;28;20071;-77
2021/04/08 02:49:39;;;;;;;6.05;3.38;;;1.80;72.20;;;;;;5014745;28;20100;-77
2021/04/08 02:52:08;;;;;;;8.63;3.42;;;1.80;73.30;;;;;;4997036;28;20083;-76
2021/04/08 02:54:40;;;;;;;10.13;3.55;;;1.80;72.70;;;;;;5014303;28;20379;-75
2021/04/08 02:57:11;;;;;;;13.20;3.90;;;1.80;73.00;;;;;;5014502;28;20026;-75
2021/04/08 03:00:04;;;;;;;7.15;3.70;;;1.80;73.10;;;;;;4996879;28;20037;-75
2021/04/08 03:02:31;;;;;;;7.70;3.22;;;1.70;73.30;;;;;;5014321;28;20030;-75
2021/04/08 03:04:59;;;;;;;8.18;3.20;;;1.70;73.50;;;;;;4996748;28;20157;-75
2021/04/08 03:07:37;;;;;;;7.68;3.30;;;1.80;73.50;;;;;;4996255;28;20034;-76
2021/04/08 03:10:05;;;;;;;5.55;3.50;;;1.80;73.20;;;;;;5014143;28;20041;-75
2021/04/08 03:12:33;;;;;;;7.10;3.42;;;1.80;73.00;;;;;;4996462;28;20022;-76
2021/04/08 03:15:00;;;;;;;6.82;3.25;;;1.90;73.00;;;;;;4996666;28;20044;-76
2021/04/08 03:17:30;;;;;;;9.85;3.30;;;1.90;73.00;;;;;;5013776;28;20048;-76
2021/04/08 03:19:58;;;;;;;5.72;3.13;;;1.90;72.90;;;;;;4996195;28;20032;-75
2021/04/08 03:22:25;;;;;;;9.65;3.97;;;1.80;73.30;;;;;;5013883;28;20032;-75
2021/04/08 03:24:53;;;;;;;10.55;3.60;;;1.70;73.70;;;;;;5012879;28;20022;-75
2021/04/08 03:27:20;;;;;;;11.57;3.88;;;1.70;73.80;;;;;;4995903;28;20569;-76
2021/04/08 03:29:47;;;;;;;5.90;3.90;;;1.60;74.00;;;;;;4996537;28;20026;-76
2021/04/08 03:32:20;;;;;;;7.82;3.08;;;1.60;74.20;;;;;;4996205;28;20026;-76
2021/04/08 03:34:47;;;;;;;10.32;3.85;;;1.60;74.00;;;;;;4993243;28;20434;-76
2021/04/08 03:37:13;;;;;;;10.05;3.40;;;1.70;74.10;;;;;;5013664;28;20033;-75
2021/04/08 03:39:40;;;;;;;10.30;3.53;;;1.70;74.00;;;;;;4995978;28;20026;-75
2021/04/08 03:42:07;;;;;;;8.23;4.03;;;1.80;73.80;;;;;;5012399;28;20036;-75
2021/04/08 03:44:33;;;;;;;10.52;4.22;;;1.80;73.40;;;;;;4995564;28;20109;-76
2021/04/08 03:47:00;;;;;;;10.38;4.15;;;1.80;73.10;;;;;;4996064;28;20134;-74
2021/04/08 03:49:29;;;;;;;13.23;4.78;;;1.80;72.60;;;;;;5013232;28;20148;-74
2021/04/08 03:51:55;;;;;;;14.60;4.97;;;1.80;72.20;;;;;;4995431;28;20072;-73
2021/04/08 03:54:22;;;;;;;11.80;5.18;;;1.70;72.30;;;;;;5012943;28;20056;-73
2021/04/08 03:56:50;;;;;;;10.88;4.13;;;1.70;72.10;;;;;;4995629;28;20478;-75
2021/04/08 03:59:18;;;;;;;10.18;4.70;;;1.70;72.40;;;;;;5013212;28;20022;-74
2021/04/08 04:01:44;;;;;;;11.10;4.03;;;1.50;73.10;;;;;;5013282;28;20454;-75
2021/04/08 04:04:12;;;;;;;8.85;4.15;;;1.60;74.20;;;;;;4995671;28;20033;-75
2021/04/08 04:06:41;;;;;;;11.27;4.32;;;1.70;73.20;;;;;;4995474;28;20044;-76
2021/04/08 04:09:10;;;;;;;11.20;4.38;;;1.60;73.00;;;;;;5013376;28;20022;-75
2021/04/08 04:11:39;;;;;;;7.35;4.47;;;1.60;73.20;;;;;;4995811;28;20356;-75
2021/04/08 04:14:07;;;;;;;8.15;4.30;;;1.60;72.80;;;;;;5005385;28;20037;-76
2021/04/08 04:16:40;;;;;;;9.57;3.90;;;1.60;72.40;;;;;;5022477;28;20034;-76
2021/04/08 04:19:05;;;;;;;11.68;4.93;;;1.60;72.50;;;;;;4996279;28;20026;-76
2021/04/08 04:21:34;;;;;;;16.02;4.10;;;1.70;72.40;;;;;;4995785;28;20392;-76
2021/04/08 04:24:00;;;;;;;7.53;4.07;;;1.50;72.20;;;;;;4995747;28;20033;-74
2021/04/08 04:26:26;;;;;;;8.43;4.15;;;1.60;71.20;;;;;;4995613;28;20498;-74
2021/04/08 04:28:52;;;;;;;8.60;3.97;;;1.50;71.10;;;;;;5013254;28;20493;-74
2021/04/08 04:31:18;;;;;;;9.95;4.47;;;1.50;71.40;;;;;;5013175;28;20598;-74
2021/04/08 04:33:43;;;;;;;11.05;4.45;;;1.50;71.40;;;;;;4995509;28;20112;-74
2021/04/08 04:36:09;;;;;;;10.27;4.43;;;1.30;73.30;;;;;;4995284;28;20033;-75
2021/04/08 04:38:34;;;;;;;11.05;3.60;;;1.30;73.50;;;;;;5012929;28;20112;-76
2021/04/08 04:41:00;;;;;;;8.90;3.97;;;1.20;73.60;;;;;;5013077;28;20026;-75
2021/04/08 04:43:26;;;;;;;8.10;3.92;;;1.20;73.50;;;;;;5013122;28;20034;-76
2021/04/08 04:45:51;;;;;;;7.20;4.10;;;1.20;73.50;;;;;;5012866;28;20049;-75
2021/04/08 04:48:17;;;;;;;11.75;4.65;;;1.30;73.50;;;;;;5012679;28;20128;-77
2021/04/08 04:50:43;;;;;;;9.75;4.63;;;1.20;73.10;;;;;;5012947;28;20037;-74
2021/04/08 04:53:08;;;;;;;11.35;4.25;;;1.30;73.40;;;;;;5012972;28;20532;-74
2021/04/08 04:55:34;;;;;;;9.50;4.35;;;1.30;73.70;;;;;;4995383;28;20053;-75
2021/04/08 04:57:59;;;;;;;9.82;4.05;;;1.40;73.50;;;;;;5012942;28;20042;-75
2021/04/08 05:00:25;;;;;;;6.30;3.58;;;1.40;73.00;;;;;;5012954;28;20022;-75
2021/04/08 05:02:50;;;;;;;10.07;3.83;;;1.50;72.50;;;;;;5012875;28;20026;-75
2021/04/08 05:05:17;;;;;;;9.38;3.72;;;1.50;72.10;;;;;;5012566;28;20033;-76
2021/04/08 05:07:44;;;;;;;13.35;4.20;;;1.60;71.70;;;;;;5013136;28;20524;-75
2021/04/08 05:10:10;;;;;;;8.05;3.45;;;1.60;71.40;;;;;;5012879;28;20022;-74
2021/04/08 05:12:35;;;;;;;16.20;3.53;;;1.60;71.50;;;;;;5012542;28;20030;-74
2021/04/08 05:15:01;;;;;;;7.57;3.28;;;1.60;71.90;;;;;;5012728;28;20033;-74
2021/04/08 05:17:26;;;;;;;7.63;3.15;;;1.70;72.10;;;;;;5012628;28;20034;-77
2021/04/08 05:19:52;;;;;;;11.48;4.10;;;1.70;72.40;;;;;;5012882;28;20072;-74
2021/04/08 05:22:18;;;;;;;9.85;4.03;;;1.80;72.20;;;;;;5013079;28;20084;-75
2021/04/08 05:24:43;;;;;;;8.70;4.22;;;1.80;71.90;;;;;;5012685;28;20447;-75
2021/04/08 05:27:09;;;;;;;8.75;4.63;;;1.80;71.20;;;;;;5012676;28;20057;-75
2021/04/08 05:29:35;;;;;;;10.10;5.03;;;1.80;71.00;;;;;;5012972;28;20022;-75
2021/04/08 05:32:00;;;;;;;12.18;4.65;;;1.90;71.00;;;;;;5012573;28;20092;-75
2021/04/08 05:34:26;;;;;;;13.00;6.10;;;1.90;70.70;;;;;;5019334;28;20053;-76
2021/04/08 05:36:52;;;;;;;15.95;9.77;;;1.90;70.50;;;;;;5025515;28;20033;-76
2021/04/08 05:39:18;;;;;;;12.77;7.38;;;1.90;69.90;;;;;;5017571;28;20029;-74
2021/04/08 05:41:44;;;;;;;14.65;7.07;;;1.90;69.40;;;;;;5012463;28;20032;-74
2021/04/08 05:44:10;;;;;;;14.13;5.88;;;2.00;69.20;;;;;;5012631;28;20463;-75
2021/04/08 05:46:35;;;;;;;13.20;5.53;;;2.10;69.10;;;;;;5013029;28;20132;-74
2021/04/08 05:49:01;;;;;;;12.90;5.40;;;2.10;68.60;;;;;;5015765;28;20046;-76
2021/04/08 05:51:27;;;;;;;10.65;5.20;;;2.30;68.30;;;;;;5016148;28;20033;-76
2021/04/08 05:53:52;;;;;;;10.55;4.97;;;2.30;67.70;;;;;;5015897;28;20104;-75
2021/04/08 05:56:18;;;;;;;14.27;7.57;;;2.40;67.20;;;;;;5015780;28;20045;-74
2021/04/08 05:58:43;;;;;;;8.50;5.00;;;2.30;66.60;;;;;;5015856;28;20026;-74
2021/04/08 06:01:09;;;;;;;9.60;5.00;;;2.30;66.50;;;;;;5015580;28;20083;-76
2021/04/08 06:03:34;;;;;;;8.18;4.07;;;2.40;65.90;;;;;;5015756;28;20026;-74
2021/04/08 06:06:00;;;;;;;11.95;3.83;;;2.40;65.50;;;;;;5015912;28;20463;-76
2021/04/08 06:08:25;;;;;;;9.98;3.67;;;2.40;64.60;;;;;;5015450;28;20081;-75
2021/04/08 06:10:51;;;;;;;10.80;4.38;;;2.30;63.70;;;;;;5015473;28;20022;-75
2021/04/08 06:13:17;;;;;;;9.95;4.65;;;2.20;63.70;;;;;;5015518;28;20033;-74
2021/04/08 06:15:42;;;;;;;9.75;4.70;;;2.20;64.00;;;;;;5015147;28;20415;-74
2021/04/08 06:18:08;;;;;;;16.30;5.82;;;2.20;64.70;;;;;;5015202;28;20057;-75
2021/04/08 06:20:34;;;;;;;13.38;7.47;;;2.20;65.40;;;;;;5015271;28;20108;-75
2021/04/08 06:22:59;;;;;;;21.63;8.13;;;2.30;66.30;;;;;;5014789;28;20029;-75
2021/04/08 06:25:25;;;;;;;17.88;6.43;;;2.30;65.90;;;;;;5014916;28;20030;-75
2021/04/08 06:27:51;;;;;;;14.07;4.85;;;2.10;65.40;;;;;;5014871;28;20030;-75
2021/04/08 06:30:18;;;;;;;11.70;4.30;;;2.00;65.40;;;;;;5014840;28;20030;-75
2021/04/08 06:32:43;;;;;;;8.20;3.40;;;2.00;65.60;;;;;;5014822;28;20025;-75
2021/04/08 06:35:10;;;;;;;13.15;4.00;;;1.90;66.80;;;;;;5015093;28;20026;-76
2021/04/08 06:37:35;;;;;;;11.32;3.90;;;1.80;67.60;;;;;;5015259;28;20364;-76
2021/04/08 06:40:01;;;;;;;6.65;3.58;;;1.80;67.20;;;;;;5014817;28;20025;-74
2021/04/08 06:42:27;;;;;;;9.98;4.10;;;1.90;67.70;;;;;;5014637;28;20360;-74
2021/04/08 06:44:56;;;;;;;8.38;3.63;;;1.90;67.30;;;;;;5014788;28;20022;-75
2021/04/08 06:47:30;;;;;;;8.63;3.55;;;2.00;67.30;;;;;;5014553;28;20121;-75
2021/04/08 06:50:03;;;;;;;7.78;3.20;;;2.10;67.50;;;;;;5014488;28;20125;-74
2021/04/08 06:52:29;;;;;;;8.20;3.03;;;2.10;67.10;;;;;;5014400;28;20042;-74
2021/04/08 06:54:56;;;;;;;10.20;3.63;;;2.20;66.90;;;;;;5014652;28;20026;-76
2021/04/08 06:57:22;;;;;;;9.73;3.70;;;2.20;67.10;;;;;;5014627;28;20034;-74
2021/04/08 06:59:48;;;;;;;10.82;5.05;;;2.30;66.80;;;;;;5014704;28;20101;-76
2021/04/08 07:02:17;;;;;;;6.93;4.07;;;2.20;66.10;;;;;;4996916;28;20537;-75
2021/04/08 07:04:43;;;;;;;13.57;3.38;;;2.20;65.70;;;;;;4996910;28;20037;-75
2021/04/08 07:07:08;;;;;;;12.90;3.80;;;2.10;65.50;;;;;;4996854;28;20582;-75
2021/04/08 07:09:34;;;;;;;11.43;3.30;;;2.10;65.60;;;;;;4996695;28;20022;-75
2021/04/08 07:12:01;;;;;;;12.32;4.15;;;2.20;65.40;;;;;;5014483;28;20018;-76
2021/04/08 07:14:27;;;;;;;10.48;3.22;;;2.10;65.80;;;;;;5014602;28;20129;-74
2021/04/08 07:16:52;;;;;;;6.05;2.95;;;2.10;65.50;;;;;;5014179;28;20475;-75
2021/04/08 07:19:19;;;;;;;10.60;3.20;;;2.10;65.30;;;;;;5014222;28;20041;-75
2021/04/08 07:21:45;;;;;;;7.97;3.17;;;2.10;65.20;;;;;;5014644;28;20419;-75
2021/04/08 07:24:23;;;;;;;15.65;3.88;;;2.20;65.30;;;;;;4996489;28;20121;-75
2021/04/08 07:27:01;;;;;;;7.25;3.15;;;2.30;65.10;;;;;;5013980;28;20044;-75
2021/04/08 07:29:38;;;;;;;8.32;3.60;;;2.50;64.40;;;;;;5014005;28;20134;-74
2021/04/08 07:32:07;;;;;;;10.55;3.65;;;2.80;63.30;;;;;;5014104;28;20447;-77
2021/04/08 07:34:41;;;;;;;8.82;3.85;;;3.10;62.10;;;;;;5013962;28;20018;-78
2021/04/08 07:37:07;;;;;;;10.07;3.40;;;3.30;61.20;;;;;;5014066;28;20038;-77
2021/04/08 07:39:44;;;;;;;14.45;3.80;;;3.50;60.00;;;;;;5013836;28;20060;-76
2021/04/08 07:42:14;;;;;;;9.85;3.75;;;3.60;59.30;;;;;;4995657;28;20033;-76
2021/04/08 07:44:50;;;;;;;10.93;3.33;;;3.90;58.30;;;;;;5013618;28;20057;-75
2021/04/08 07:47:21;;;;;;;17.98;3.95;;;4.00;57.50;;;;;;5013718;28;20025;-75
2021/04/08 07:49:49;;;;;;;7.30;3.20;;;3.90;56.50;;;;;;5013503;28;20042;-74
2021/04/08 07:52:30;;;;;;;10.18;3.20;;;4.10;55.70;;;;;;5013362;28;20125;-75
2021/04/08 07:54:56;;;;;;;8.57;2.75;;;4.30;54.30;;;;;;5013710;28;20026;-75
2021/04/08 07:57:22;;;;;;;5.90;3.00;;;4.30;53.60;;;;;;5013603;28;20033;-76
2021/04/08 07:59:47;;;;;;;9.60;3.05;;;4.50;53.30;;;;;;5013708;28;20022;-75
2021/04/08 08:02:13;;;;;;;7.15;2.95;;;4.70;51.70;;;;;;5013403;28;20030;-73
2021/04/08 08:04:38;;;;;;;5.95;2.40;;;4.80;50.90;;;;;;5013799;28;20021;-77
2021/04/08 08:07:04;;;;;;;5.07;2.03;;;4.90;48.60;;;;;;4995793;28;20061;-75
2021/04/08 08:09:31;;;;;;;5.57;2.50;;;4.70;46.60;;;;;;4995259;28;20030;-76
2021/04/08 08:12:09;;;;;;;5.35;2.85;;;4.80;46.50;;;;;;5013526;28;20076;-75
2021/04/08 08:14:43;;;;;;;5.57;3.03;;;4.70;46.60;;;;;;4996122;28;20117;-75
2021/04/08 08:17:13;;;;;;;6.15;3.08;;;4.90;46.60;;;;;;5013630;28;20362;-74
2021/04/08 08:19:43;;;;;;;33.95;4.03;;;5.00;46.00;;;;;;4996589;28;20525;-75
2021/04/08 08:22:18;;;;;;;13.32;2.80;;;5.20;51.60;;;;;;4997610;28;20057;-74
2021/04/08 08:24:55;;;;;;;7.45;2.75;;;6.00;56.80;;;;;;5012870;28;20040;-75
2021/04/08 08:27:35;;;;;;;9.40;2.20;;;6.60;52.20;;;;;;4995415;28;20502;-76
2021/04/08 08:30:01;;;;;;;6.20;2.13;;;6.70;48.90;;;;;;4995558;28;20026;-76
2021/04/08 08:32:27;;;;;;;5.43;2.00;;;6.80;46.10;;;;;;5005132;28;20072;-75
2021/04/08 08:34:53;;;;;;;4.32;1.92;;;7.10;44.10;;;;;;5015560;28;20045;-75
2021/04/08 08:37:20;;;;;;;4.25;1.52;;;6.90;41.30;;;;;;5015587;28;20490;-76
2021/04/08 08:39:48;;;;;;;5.03;1.70;;;6.90;40.70;;;;;;5031488;28;20116;-76
2021/04/08 08:42:16;;;;;;;3.15;1.73;;;6.80;40.20;;;;;;5015061;28;20025;-74
2021/04/08 08:44:43;;;;;;;4.05;2.13;;;6.60;39.60;;;;;;5032614;28;20029;-76
2021/04/08 08:47:18;;;;;;;4.63;2.20;;;6.70;40.50;;;;;;5031378;28;20041;-75
2021/04/08 08:49:59;;;;;;;5.90;2.03;;;6.50;40.00;;;;;;5014813;28;20050;-73
2021/04/08 08:52:29;;;;;;;10.43;2.58;;;6.50;40.70;;;;;;5014800;28;20030;-75
2021/04/08 08:54:55;;;;;;;6.18;2.10;;;6.40;41.10;;;;;;5014480;28;20021;-76
2021/04/08 08:57:21;;;;;;;3.45;1.65;;;6.60;42.90;;;;;;5014557;28;20030;-76
2021/04/08 08:59:49;;;;;;;12.18;2.20;;;7.10;43.90;;;;;;5014659;28;20025;-74
2021/04/08 09:02:15;;;;;;;7.93;2.50;;;7.40;43.00;;;;;;5014403;28;20517;-76
2021/04/08 09:04:41;;;;;;;4.68;1.83;;;7.10;41.30;;;;;;5014932;28;20070;-76
2021/04/08 09:07:09;;;;;;;7.03;2.30;;;7.20;42.60;;;;;;5014499;28;20123;-75
2021/04/08 09:09:38;;;;;;;4.75;2.53;;;6.80;41.30;;;;;;5009442;28;20030;-76
2021/04/08 09:12:08;;;;;;;9.73;2.65;;;7.00;41.70;;;;;;4997665;28;20025;-75
2021/04/08 09:14:34;;;;;;;8.90;2.58;;;6.90;40.50;;;;;;5012549;28;20084;-75
2021/04/08 09:17:00;;;;;;;5.80;2.03;;;6.70;42.10;;;;;;4995028;28;20276;-75
2021/04/08 09:19:29;;;;;;;5.38;2.47;;;7.20;42.70;;;;;;4995064;28;20068;-75
2021/04/08 09:21:58;;;;;;;3.13;2.08;;;8.00;44.30;;;;;;4995852;28;20437;-74
2021/04/08 09:24:35;;;;;;;6.47;2.30;;;8.30;42.00;;;;;;4998756;28;20486;-75
2021/04/08 09:27:01;;;;;;;7.50;2.45;;;8.80;41.00;;;;;;4998603;28;20424;-74
2021/04/08 09:29:36;;;;;;;5.32;2.13;;;8.70;39.50;;;;;;4998511;28;20030;-75
2021/04/08 09:32:34;;;;;;;5.72;2.45;;;9.00;39.00;;;;;;4998652;28;20367;-75
2021/04/08 09:35:08;;;;;;;7.75;2.70;;;9.20;38.30;;;;;;4998537;28;20022;-75
2021/04/08 09:37:46;;;;;;;4.38;1.70;;;9.30;38.40;;;;;;4998426;28;20026;-75
2021/04/08 09:40:21;;;;;;;5.35;2.25;;;9.50;37.10;;;;;;5016035;28;20045;-74
2021/04/08 09:42:52;;;;;;;7.83;2.53;;;8.90;35.40;;;;;;4998406;28;20172;-75
2021/04/08 09:45:19;;;;;;;6.15;2.42;;;8.30;34.90;;;;;;4997325;28;20700;-75
2021/04/08 09:47:44;;;;;;;6.63;2.63;;;7.80;34.90;;;;;;5003098;28;20132;-73
2021/04/08 09:50:30;;;;;;;4.93;2.60;;;7.50;35.30;;;;;;5015679;28;20049;-74
2021/04/08 09:52:56;;;;;;;8.23;3.08;;;7.30;36.10;;;;;;4997859;28;20057;-74
2021/04/08 09:55:32;;;;;;;4.28;2.65;;;6.70;36.40;;;;;;4997688;28;20111;-73
2021/04/08 09:58:03;;;;;;;5.32;3.00;;;6.40;36.60;;;;;;4997807;28;20029;-73
2021/04/08 10:00:30;;;;;;;7.20;2.70;;;6.30;37.50;;;;;;5015314;28;20411;-73
2021/04/08 10:03:05;;;;;;;6.70;2.70;;;6.30;38.20;;;;;;4997889;28;20018;-74
2021/04/08 10:05:33;;;;;;;6.90;2.63;;;6.40;38.90;;;;;;4996796;28;20026;-75
2021/04/08 10:07:59;;;;;;;4.78;2.35;;;6.30;39.00;;;;;;4997027;28;20044;-75
2021/04/08 10:10:37;;;;;;;8.45;2.90;;;6.20;39.10;;;;;;4997085;28;20024;-74
2021/04/08 10:13:19;;;;;;;8.48;2.53;;;6.30;39.30;;;;;;4997928;28;20029;-73
2021/04/08 10:15:46;;;;;;;7.30;2.90;;;6.20;39.20;;;;;;5015162;28;20029;-74
2021/04/08 10:18:19;;;;;;;5.53;2.60;;;6.10;39.70;;;;;;5015254;28;20044;-74
2021/04/08 10:20:46;;;;;;;5.68;2.72;;;5.90;40.30;;;;;;5015035;28;20093;-74
2021/04/08 10:23:12;;;;;;;6.35;3.20;;;5.90;40.90;;;;;;4997469;28;20028;-74
2021/04/08 10:25:38;;;;;;;9.45;2.85;;;5.70;41.10;;;;;;4997469;28;20030;-73
2021/04/08 10:28:05;;;;;;;9.77;2.92;;;5.70;41.00;;;;;;4997718;28;20038;-73
2021/04/08 10:30:38;;;;;;;7.05;2.90;;;5.90;40.90;;;;;;4997494;28;20018;-74
2021/04/08 10:33:20;;;;;;;6.20;3.15;;;6.00;40.80;;;;;;4997368;28;20026;-73
2021/04/08 10:35:46;;;;;;;9.07;2.72;;;6.10;40.30;;;;;;4997594;28;20030;-73
2021/04/08 10:38:12;;;;;;;8.25;2.65;;;6.10;40.00;;;;;;4997206;28;20026;-73
2021/04/08 10:40:47;;;;;;;4.88;2.85;;;6.00;40.10;;;;;;4997224;28;20040;-74
2021/04/08 10:43:15;;;;;;;7.10;3.00;;;6.00;41.00;;;;;;4996794;28;20053;-76
2021/04/08 10:46:10;;;;;;;6.30;2.97;;;6.00;40.30;;;;;;4997347;28;20030;-76
2021/04/08 10:48:36;;;;;;;3.80;2.78;;;6.20;39.80;;;;;;4980282;28;20069;-76
2021/04/08 10:51:12;;;;;;;9.57;3.20;;;6.40;38.90;;;;;;4996655;28;20486;-74
2021/04/08 10:53:38;;;;;;;5.78;2.42;;;6.40;38.00;;;;;;4996803;28;20037;-73
2021/04/08 10:56:08;;;;;;;5.55;3.17;;;6.50;37.70;;;;;;5013923;28;20029;-75
2021/04/08 10:58:34;;;;;;;5.05;2.85;;;6.60;37.30;;;;;;4996898;28;20080;-74
2021/04/08 11:00:59;;;;;;;8.20;2.60;;;6.70;37.10;;;;;;4997118;28;20054;-75
2021/04/08 11:03:25;;;;;;;5.82;3.45;;;6.80;36.80;;;;;;4996911;28;20391;-74
2021/04/08 11:05:51;;;;;;;10.23;2.72;;;6.70;36.70;;;;;;4996857;28;20029;-75
2021/04/08 11:08:17;;;;;;;6.57;2.83;;;6.30;36.20;;;;;;4996534;28;20061;-73
2021/04/08 11:10:43;;;;;;;7.13;3.28;;;6.20;36.30;;;;;;4996989;28;20025;-75
2021/04/08 11:13:11;;;;;;;7.28;3.45;;;5.90;37.30;;;;;;4996823;28;20022;-74
2021/04/08 11:15:39;;;;;;;5.25;2.60;;;6.00;38.00;;;;;;4998118;28;20036;-76
2021/04/08 11:18:11;;;;;;;5.43;2.83;;;6.10;38.00;;;;;;4996681;28;20462;-76
2021/04/08 11:20:40;;;;;;;6.55;3.08;;;6.20;38.00;;;;;;4996099;28;20336;-75
2021/04/08 11:23:07;;;;;;;4.65;2.83;;;6.10;38.30;;;;;;4996252;28;20037;-75
2021/04/08 11:25:35;;;;;;;5.25;3.08;;;6.10;38.60;;;;;;4996480;28;20022;-76
2021/04/08 11:28:03;;;;;;;5.05;3.13;;;6.20;38.50;;;;;;4997094;28;20129;-77
2021/04/08 11:30:37;;;;;;;6.35;2.90;;;6.30;38.10;;;;;;4980054;28;20056;-77
2021/04/08 11:33:05;;;;;;;5.03;2.80;;;6.40;38.00;;;;;;4996124;28;20109;-74
2021/04/08 11:35:39;;;;;;;6.95;2.88;;;6.60;37.30;;;;;;4996257;28;20022;-75
2021/04/08 11:38:14;;;;;;;10.60;4.72;;;6.70;36.90;;;;;;4996394;28;20022;-74
2021/04/08 11:40:51;;;;;;;6.78;3.80;;;6.80;36.60;;;;;;4996466;28;20061;-73
2021/04/08 11:43:25;;;;;;;6.65;3.60;;;6.80;36.40;;;;;;4996169;28;20029;-73
2021/04/08 11:45:59;;;;;;;5.80;3.30;;;7.10;36.30;;;;;;4995362;28;20165;-74
2021/04/08 11:48:37;;;;;;;6.30;3.17;;;7.20;36.00;;;;;;4995656;28;20491;-74
2021/04/08 11:51:05;;;;;;;7.68;3.15;;;7.10;36.00;;;;;;5013743;28;20501;-73
2021/04/08 11:53:39;;;;;;;7.45;3.13;;;7.30;36.20;;;;;;4995952;28;20044;-73
2021/04/08 11:56:32;;;;;;;6.35;3.40;;;7.60;36.50;;;;;;4995896;28;20025;-74
2021/04/08 11:59:14;;;;;;;6.20;3.10;;;7.90;37.00;;;;;;5013187;28;20018;-73
2021/04/08 12:01:46;;;;;;;8.18;4.25;;;8.40;36.80;;;;;;4996019;28;20495;-73
2021/04/08 12:04:14;;;;;;;8.85;3.97;;;8.40;35.90;;;;;;4995899;28;20036;-73
2021/04/08 12:06:49;;;;;;;5.13;3.17;;;8.50;35.00;;;;;;4995930;28;20030;-74
2021/04/08 12:09:15;;;;;;;9.20;2.67;;;8.50;35.10;;;;;;4995546;28;20022;-73
2021/04/08 12:11:53;;;;;;;6.80;2.38;;;8.80;35.10;;;;;;4995445;28;20041;-73
2021/04/08 12:14:19;;;;;;;7.53;2.95;;;8.90;35.30;;;;;;5013045;28;20029;-74
2021/04/08 12:17:00;;;;;;;4.75;2.67;;;8.90;34.90;;;;;;4995469;28;20030;-73
2021/04/08 12:19:25;;;;;;;6.82;3.08;;;8.70;34.70;;;;;;4995821;28;20018;-73
2021/04/08 12:22:03;;;;;;;5.20;2.80;;;8.60;35.00;;;;;;4995795;28;20500;-73
2021/04/08 12:24:30;;;;;;;7.25;2.75;;;8.80;34.90;;;;;;5012859;28;20323;-74
2021/04/08 12:26:56;;;;;;;4.22;2.92;;;8.80;34.30;;;;;;4995410;28;20032;-75
2021/04/08 12:29:21;;;;;;;6.80;3.20;;;8.60;34.00;;;;;;4995212;28;20573;-73
2021/04/08 12:31:49;;;;;;;4.93;2.78;;;8.70;34.30;;;;;;4995384;28;20029;-74
2021/04/08 12:34:14;;;;;;;4.30;2.28;;;8.90;34.10;;;;;;4995453;28;20030;-73
2021/04/08 12:36:40;;;;;;;4.78;2.78;;;9.10;33.80;;;;;;4995481;28;20359;-74
2021/04/08 12:39:06;;;;;;;3.90;2.55;;;9.60;34.50;;;;;;4995266;28;20026;-74
2021/04/08 12:41:32;;;;;;;6.85;3.22;;;10.00;34.20;;;;;;4995364;28;20104;-73
2021/04/08 12:43:58;;;;;;;5.15;2.83;;;9.70;33.30;;;;;;5012874;28;20390;-73
2021/04/08 12:46:24;;;;;;;8.02;3.30;;;9.80;32.50;;;;;;4995253;28;20021;-74
2021/04/08 12:48:50;;;;;;;4.80;2.58;;;10.00;32.10;;;;;;4994801;28;20054;-76
2021/04/08 12:51:15;;;;;;;5.53;2.22;;;10.20;31.90;;;;;;4995152;28;20026;-74
2021/04/08 12:53:42;;;;;;;6.03;3.17;;;10.70;31.80;;;;;;4995251;28;20022;-74
2021/04/08 12:56:08;;;;;;;8.80;3.05;;;11.10;31.70;;;;;;4996777;28;20057;-74
2021/04/08 12:58:34;;;;;;;6.18;3.00;;;11.50;31.40;;;;;;5016904;28;20072;-73
2021/04/08 13:01:00;;;;;;;5.90;3.17;;;11.80;30.50;;;;;;5016772;28;20493;-74